Time;durP1;ratioP1;P1;durP2;ratioP2;P2;SDS_P1;SDS_P2;PMS_P1;PMS_P2;Temp;Humidity;BMP_temperature;BMP_pressure;BME280_temperature;BME280_humidity;BME280_pressure;Samples;Min_cycle;Max_cycle;Signal;HPM_P1;HPM_P2
2021/11/22 00:01:00;;;;;;;;;;;;;;;;;;6252272;23;19930;-90
2021/11/22 00:03:26;;;;;;;;;;;;;;;;;;6251669;23;19978;-90
2021/11/22 00:05:53;;;;;;;;;;;;;;;;;;6252226;23;19923;-90
2021/11/22 00:08:19;;;;;;;;;;;;;;;;;;6252447;23;19923;-90
2021/11/22 00:10:45;;;;;;;;;;;;;;;;;;6252143;23;19923;-90
2021/11/22 00:13:12;;;;;;;;;;;;;;;;;;6252078;23;19931;-90
2021/11/22 00:15:38;;;;;;;;;;;;;;;;;;6252376;23;19939;-90
2021/11/22 00:18:04;;;;;;;;;;;;;;;;;;6254400;23;19924;-89
2021/11/22 00:20:31;;;;;;;;;;;;;;;;;;6254834;23;19927;-89
2021/11/22 00:22:57;;;;;;;;;;;;;;;;;;6254403;23;20612;-88
2021/11/22 00:25:23;;;;;;;;;;;;;;;;;;6254618;23;19927;-90
2021/11/22 00:27:50;;;;;;;;;;;;;;;;;;6255150;23;19923;-89
2021/11/22 00:30:16;;;;;;;;;;;;;;;;;;6254736;23;19919;-88
2021/11/22 00:32:44;;;;;;;;;;;;;;;;;;6252699;23;19930;-89
2021/11/22 00:35:10;;;;;;;;;;;;;;;;;;6252716;23;19920;-89
2021/11/22 00:37:38;;;;;;;;;;;;;;;;;;6251690;23;19919;-89
2021/11/22 00:40:04;;;;;;;;;;;;;;;;;;6252046;23;19954;-89
2021/11/22 00:42:30;;;;;;;;;;;;;;;;;;6252783;23;19947;-89
2021/11/22 00:44:57;;;;;;;;;;;;;;;;;;6253834;23;20357;-89
2021/11/22 00:47:23;;;;;;;;;;;;;;;;;;6254915;23;19923;-88
2021/11/22 00:49:49;;;;;;;;;;;;;;;;;;6254417;23;19923;-89
2021/11/22 00:52:16;;;;;;;;;;;;;;;;;;6251773;23;19924;-89
2021/11/22 00:54:42;;;;;;;;;;;;;;;;;;6252086;23;19927;-89
2021/11/22 00:57:08;;;;;;;;;;;;;;;;;;6254758;23;19946;-89
2021/11/22 00:59:35;;;;;;;;;;;;;;;;;;6254401;23;19930;-89
2021/11/22 01:02:01;;;;;;;;;;;;;;;;;;6254323;23;19935;-88
2021/11/22 01:04:27;;;;;;;;;;;;;;;;;;6255779;23;19931;-89
2021/11/22 01:06:54;;;;;;;;;;;;;;;;;;6254609;23;19939;-88
2021/11/22 01:09:20;;;;;;;;;;;;;;;;;;6253086;23;19931;-88
2021/11/22 01:11:46;;;;;;;;;;;;;;;;;;6253790;23;20437;-89
2021/11/22 01:14:12;;;;;;;;;;;;;;;;;;6253654;23;19939;-89
2021/11/22 01:16:39;;;;;;;;;;;;;;;;;;6255359;23;19924;-89
2021/11/22 01:19:05;;;;;;;;;;;;;;;;;;6254642;23;19919;-89
2021/11/22 01:21:31;;;;;;;;;;;;;;;;;;6254606;23;19931;-90
2021/11/22 01:23:57;;;;;;;;;;;;;;;;;;6253904;23;19924;-89
2021/11/22 01:26:24;;;;;;;;;;;;;;;;;;6253324;23;19920;-89
2021/11/22 01:28:50;;;;;;;;;;;;;;;;;;6254211;23;20265;-90
2021/11/22 01:31:17;;;;;;;;;;;;;;;;;;6252645;23;20733;-88
2021/11/22 01:33:43;;;;;;;;;;;;;;;;;;6250818;23;19919;-88
2021/11/22 01:36:09;;;;;;;;;;;;;;;;;;6253368;23;19931;-89
2021/11/22 01:38:35;;;;;;;;;;;;;;;;;;6253655;22;19924;-89
2021/11/22 01:41:02;;;;;;;;;;;;;;;;;;6253458;23;19950;-88
2021/11/22 01:43:28;;;;;;;;;;;;;;;;;;6254252;23;19923;-88
2021/11/22 01:45:54;;;;;;;;;;;;;;;;;;6253961;23;20458;-89
2021/11/22 01:48:20;;;;;;;;;;;;;;;;;;6253436;23;19924;-88
2021/11/22 01:50:47;;;;;;;;;;;;;;;;;;6254502;23;19986;-89
2021/11/22 01:53:15;;;;;;;;;;;;;;;;;;6254377;23;19950;-88
2021/11/22 01:55:41;;;;;;;;;;;;;;;;;;6253882;23;19927;-89
2021/11/22 01:58:07;;;;;;;;;;;;;;;;;;6254334;23;19920;-89
2021/11/22 02:00:33;;;;;;;;;;;;;;;;;;6257795;23;20281;-89
2021/11/22 02:03:00;;;;;;;;;;;;;;;;;;6259209;23;19998;-90
2021/11/22 02:05:26;;;;;;;;;;;;;;;;;;6267401;22;19912;-88
2021/11/22 02:07:52;;;;;;;;;;;;;;;;;;6259653;23;19931;-89
2021/11/22 02:10:19;;;;;;;;;;;;;;;;;;6252431;23;19924;-89
2021/11/22 02:12:45;;;;;;;;;;;;;;;;;;6251232;23;19968;-89
2021/11/22 02:15:11;;;;;;;;;;;;;;;;;;6252671;23;20396;-89
2021/11/22 02:17:39;;;;;;;;;;;;;;;;;;6254506;23;19966;-89
2021/11/22 02:20:06;;;;;;;;;;;;;;;;;;6254583;23;19950;-89
2021/11/22 02:22:32;;;;;;;;;;;;;;;;;;6253342;23;19950;-89
2021/11/22 02:24:58;;;;;;;;;;;;;;;;;;6253565;23;19919;-89
2021/11/22 02:27:25;;;;;;;;;;;;;;;;;;6254478;23;19939;-89
2021/11/22 02:29:51;;;;;;;;;;;;;;;;;;6254750;23;19931;-89
2021/11/22 02:32:17;;;;;;;;;;;;;;;;;;6254540;23;19923;-89
2021/11/22 02:34:43;;;;;;;;;;;;;;;;;;6254083;23;19928;-89
2021/11/22 02:37:10;;;;;;;;;;;;;;;;;;6253273;22;19930;-89
2021/11/22 02:39:36;;;;;;;;;;;;;;;;;;6252905;23;19930;-89
2021/11/22 02:42:02;;;;;;;;;;;;;;;;;;6253985;23;19923;-90
2021/11/22 02:44:29;;;;;;;;;;;;;;;;;;6254114;23;19926;-88
2021/11/22 02:46:55;;;;;;;;;;;;;;;;;;6253886;23;20281;-89
2021/11/22 02:49:21;;;;;;;;;;;;;;;;;;6254038;23;19938;-87
2021/11/22 02:51:49;;;;;;;;;;;;;;;;;;6250017;23;19923;-87
2021/11/22 02:54:15;;;;;;;;;;;;;;;;;;6250546;23;20499;-88
2021/11/22 02:56:41;;;;;;;;;;;;;;;;;;6253217;23;19946;-88
2021/11/22 02:59:07;;;;;;;;;;;;;;;;;;6253289;23;19920;-87
2021/11/22 03:01:34;;;;;;;;;;;;;;;;;;6253310;23;20006;-87
2021/11/22 03:04:01;;;;;;;;;;;;;;;;;;6253435;23;19931;-88
2021/11/22 03:06:27;;;;;;;;;;;;;;;;;;6252414;23;19923;-88
2021/11/22 03:08:53;;;;;;;;;;;;;;;;;;6250770;23;19919;-88
2021/11/22 03:11:19;;;;;;;;;;;;;;;;;;6250951;23;19927;-88
2021/11/22 03:13:46;;;;;;;;;;;;;;;;;;6251850;23;20334;-88
2021/11/22 03:16:12;;;;;;;;;;;;;;;;;;6251117;23;19990;-88
2021/11/22 03:18:38;;;;;;;;;;;;;;;;;;6250275;23;19930;-88
2021/11/22 03:21:05;;;;;;;;;;;;;;;;;;6250994;23;19919;-89
2021/11/22 03:23:31;;;;;;;;;;;;;;;;;;6251424;23;19923;-89
2021/11/22 03:25:57;;;;;;;;;;;;;;;;;;6251839;23;19923;-90
2021/11/22 03:28:25;;;;;;;;;;;;;;;;;;6252639;23;19932;-88
2021/11/22 03:30:51;;;;;;;;;;;;;;;;;;6253141;23;19926;-89
2021/11/22 03:33:18;;;;;;;;;;;;;;;;;;6253141;23;19920;-88
2021/11/22 03:35:45;;;;;;;;;;;;;;;;;;6252743;23;19919;-88
2021/11/22 03:38:13;;;;;;;;;;;;;;;;;;6253055;23;20410;-89
2021/11/22 03:40:40;;;;;;;;;;;;;;;;;;6251986;23;19920;-89
2021/11/22 03:43:15;;;;;;;;;;;;;;;;;;6252287;23;20318;-88
2021/11/22 03:45:41;;;;;;;;;;;;;;;;;;6252443;23;19924;-88
2021/11/22 03:48:07;;;;;;;;;;;;;;;;;;6253874;23;19923;-89
2021/11/22 03:50:33;;;;;;;;;;;;;;;;;;6252440;23;19923;-89
2021/11/22 03:53:00;;;;;;;;;;;;;;;;;;6251423;23;20558;-88
2021/11/22 03:55:27;;;;;;;;;;;;;;;;;;6251317;23;19934;-88
2021/11/22 03:57:54;;;;;;;;;;;;;;;;;;6250850;23;19938;-89
2021/11/22 04:00:22;;;;;;;;;;;;;;;;;;6252094;23;19924;-88
2021/11/22 04:02:48;;;;;;;;;;;;;;;;;;6253791;23;19924;-88
2021/11/22 04:05:14;;;;;;;;;;;;;;;;;;6253254;23;19931;-89
2021/11/22 04:07:40;;;;;;;;;;;;;;;;;;6252957;23;19930;-89
2021/11/22 04:10:07;;;;;;;;;;;;;;;;;;6253091;23;19924;-89
2021/11/22 04:12:33;;;;;;;;;;;;;;;;;;6252554;23;19928;-89
2021/11/22 04:14:59;;;;;;;;;;;;;;;;;;6252289;23;19920;-87
2021/11/22 04:17:25;;;;;;;;;;;;;;;;;;6251385;23;19927;-88
2021/11/22 04:19:52;;;;;;;;;;;;;;;;;;6251748;23;19927;-87
2021/11/22 04:22:18;;;;;;;;;;;;;;;;;;6253974;23;19924;-87
2021/11/22 04:24:44;;;;;;;;;;;;;;;;;;6252953;23;19923;-87
2021/11/22 04:27:12;;;;;;;;;;;;;;;;;;6252751;23;19931;-88
2021/11/22 04:29:40;;;;;;;;;;;;;;;;;;6253043;23;19943;-88
2021/11/22 04:32:06;;;;;;;;;;;;;;;;;;6252698;23;20322;-87
2021/11/22 04:34:33;;;;;;;;;;;;;;;;;;6253149;23;19928;-87
2021/11/22 04:37:00;;;;;;;;;;;;;;;;;;6258647;23;19920;-87
2021/11/22 04:39:26;;;;;;;;;;;;;;;;;;6261872;23;19959;-88
2021/11/22 04:41:52;;;;;;;;;;;;;;;;;;6266486;22;19912;-88
2021/11/22 04:44:19;;;;;;;;;;;;;;;;;;6253780;23;19923;-88
2021/11/22 04:46:45;;;;;;;;;;;;;;;;;;6251216;23;20112;-87
2021/11/22 04:49:11;;;;;;;;;;;;;;;;;;6250660;23;19924;-88
2021/11/22 04:51:37;;;;;;;;;;;;;;;;;;6252678;23;19930;-88
2021/11/22 04:54:04;;;;;;;;;;;;;;;;;;6252968;23;19930;-88
2021/11/22 04:56:30;;;;;;;;;;;;;;;;;;6251692;23;20239;-88
2021/11/22 04:58:56;;;;;;;;;;;;;;;;;;6252215;23;19939;-88
2021/11/22 05:01:22;;;;;;;;;;;;;;;;;;6252396;23;19924;-88
2021/11/22 05:03:50;;;;;;;;;;;;;;;;;;6252854;23;19923;-88
2021/11/22 05:06:17;;;;;;;;;;;;;;;;;;6254215;23;19943;-88
2021/11/22 05:08:43;;;;;;;;;;;;;;;;;;6253204;23;19919;-88
2021/11/22 05:11:09;;;;;;;;;;;;;;;;;;6253289;23;19926;-88
2021/11/22 05:13:35;;;;;;;;;;;;;;;;;;6254621;23;19935;-89
2021/11/22 05:16:02;;;;;;;;;;;;;;;;;;6254410;23;19935;-89
2021/11/22 05:18:28;;;;;;;;;;;;;;;;;;6254204;23;19958;-89
2021/11/22 05:20:54;;;;;;;;;;;;;;;;;;6253467;23;19923;-90
2021/11/22 05:23:20;;;;;;;;;;;;;;;;;;6253812;23;19927;-89
2021/11/22 05:25:47;;;;;;;;;;;;;;;;;;6252430;23;19923;-89
2021/11/22 05:28:13;;;;;;;;;;;;;;;;;;6251904;23;19967;-89
2021/11/22 05:30:39;;;;;;;;;;;;;;;;;;6252997;23;19939;-88
2021/11/22 05:33:05;;;;;;;;;;;;;;;;;;6255003;23;19920;-88
2021/11/22 05:35:32;;;;;;;;;;;;;;;;;;6254052;23;19927;-88
2021/11/22 05:37:58;;;;;;;;;;;;;;;;;;6253696;23;19920;-88
2021/11/22 05:40:24;;;;;;;;;;;;;;;;;;6252557;23;19919;-88
2021/11/22 05:42:51;;;;;;;;;;;;;;;;;;6251217;23;19924;-88
2021/11/22 05:45:18;;;;;;;;;;;;;;;;;;6252845;23;19920;-89
2021/11/22 05:47:44;;;;;;;;;;;;;;;;;;6254694;23;19920;-89
2021/11/22 05:50:11;;;;;;;;;;;;;;;;;;6254564;23;19919;-89
2021/11/22 05:52:41;;;;;;;122.75;37.40;;;;;;;;;;6252600;23;20072;-91
2021/11/22 05:55:12;;;;;;;122.40;40.05;;;;;;;;;;6252839;23;20234;-90
2021/11/22 05:57:38;;;;;;;127.50;38.72;;;;;;;;;;6250354;23;20179;-89
2021/11/22 06:00:05;;;;;;;124.13;38.88;;;;;;;;;;6251148;23;20183;-90
2021/11/22 06:02:32;;;;;;;119.57;39.17;;;;;;;;;;6253392;23;20186;-90
2021/11/22 06:04:58;;;;;;;117.55;36.13;;;;;;;;;;6252171;23;20218;-91
2021/11/22 06:07:25;;;;;;;123.85;38.58;;;;;;;;;;6253188;23;20178;-91
2021/11/22 06:09:54;;;;;;;128.20;39.80;;;;;;;;;;6252985;23;20215;-91
2021/11/22 06:12:21;;;;;;;128.38;40.10;;;;;;;;;;6253493;23;20486;-91
2021/11/22 06:14:47;;;;;;;125.85;38.88;;;;;;;;;;6252932;23;20179;-91
2021/11/22 06:17:14;;;;;;;123.40;38.40;;;;;;;;;;6253050;23;20182;-91
2021/11/22 06:19:40;;;;;;;117.90;36.67;;;;;;;;;;6253167;23;20420;-93
2021/11/22 06:22:07;;;;;;;117.10;35.50;;;;;;;;;;6252895;23;20175;-91
2021/11/22 06:24:33;;;;;;;123.23;36.53;;;;;;;;;;6252361;23;20464;-91
2021/11/22 06:27:02;;;;;;;127.78;40.65;;;;;;;;;;6251788;23;20452;-93
2021/11/22 06:29:28;;;;;;;115.50;37.10;;;;;;;;;;6252214;23;20175;-91
2021/11/22 06:31:54;;;;;;;;;;;;;;;;;;6253128;23;20414;-88
2021/11/22 06:34:21;;;;;;;;;;;;;;;;;;6254082;23;19923;-88
2021/11/22 06:36:47;;;;;;;;;;;;;;;;;;6253476;23;19924;-88
2021/11/22 06:39:13;;;;;;;;;;;;;;;;;;6252580;23;19923;-89
2021/11/22 06:41:40;;;;;;;;;;;;;;;;;;6251305;23;19924;-88
2021/11/22 06:44:06;;;;;;;;;;;;;;;;;;6251870;23;19924;-89
2021/11/22 06:46:32;;;;;;;;;;;;;;;;;;6252810;23;19923;-89
2021/11/22 06:48:59;;;;;;;;;;;;;;;;;;6251719;23;19923;-88
2021/11/22 06:51:25;;;;;;;;;;;;;;;;;;6252223;23;19927;-89
2021/11/22 06:53:52;;;;;;;;;;;;;;;;;;6251859;23;19920;-88
2021/11/22 06:56:18;;;;;;;;;;;;;;;;;;6252267;23;19930;-88
2021/11/22 06:58:44;;;;;;;;;;;;;;;;;;6249388;23;19924;-88
2021/11/22 07:01:10;;;;;;;;;;;;;;;;;;6253486;23;20260;-88
2021/11/22 07:03:37;;;;;;;;;;;;;;;;;;6253886;23;19923;-89
2021/11/22 07:06:04;;;;;;;;;;;;;;;;;;6254645;23;19923;-88
2021/11/22 07:08:31;;;;;;;;;;;;;;;;;;6254835;23;19920;-88
2021/11/22 07:10:57;;;;;;;;;;;;;;;;;;6254724;23;19920;-87
2021/11/22 07:13:25;;;;;;;;;;;;;;;;;;6258351;23;19923;-87
2021/11/22 07:15:51;;;;;;;;;;;;;;;;;;6266261;23;19919;-87
2021/11/22 07:18:17;;;;;;;;;;;;;;;;;;6253612;23;19946;-87
2021/11/22 07:20:46;;;;;;;;;;;;;;;;;;6251459;23;19927;-88
2021/11/22 07:23:13;;;;;;;;;;;;;;;;;;6242488;23;20002;-88
2021/11/22 07:25:40;;;;;;;;;;;;;;;;;;6243726;23;19924;-88
2021/11/22 07:28:06;;;;;;;;;;;;;;;;;;6246837;23;19923;-88
2021/11/22 07:30:32;;;;;;;;;;;;;;;;;;6248103;23;19923;-87
2021/11/22 07:32:59;;;;;;;;;;;;;;;;;;6249603;23;19923;-87
2021/11/22 07:35:25;;;;;;;;;;;;;;;;;;6250108;23;19924;-89
2021/11/22 07:37:51;;;;;;;;;;;;;;;;;;6251336;23;19927;-88
2021/11/22 07:40:21;;;;;;;;;;;;;;;;;;6249936;23;19943;-89
2021/11/22 07:42:47;;;;;;;;;;;;;;;;;;6250040;23;19947;-89
2021/11/22 07:45:13;;;;;;;;;;;;;;;;;;6252460;23;19947;-89
2021/11/22 07:47:39;;;;;;;;;;;;;;;;;;6249108;23;19931;-89
2021/11/22 07:50:06;;;;;;;;;;;;;;;;;;6248478;23;19931;-90
2021/11/22 07:52:32;;;;;;;;;;;;;;;;;;6249707;23;20557;-89
2021/11/22 07:54:58;;;;;;;;;;;;;;;;;;6251408;23;19920;-89
2021/11/22 07:57:24;;;;;;;;;;;;;;;;;;6257541;23;19924;-89
2021/11/22 07:59:51;;;;;;;;;;;;;;;;;;6255405;23;19920;-88
2021/11/22 08:02:18;;;;;;;;;;;;;;;;;;6251007;23;20001;-91
2021/11/22 08:04:44;;;;;;;;;;;;;;;;;;6251117;23;19927;-90
2021/11/22 08:07:15;;;;;;;;;;;;;;;;;;6250110;23;19920;-90
2021/11/22 08:09:47;;;;;;;;;;;;;;;;;;6250272;23;19924;-90
2021/11/22 08:12:26;;;;;;;;;;;;;;;;;;6251000;23;19970;-91
2021/11/22 08:14:53;;;;;;;;;;;;;;;;;;6251950;23;20472;-92
2021/11/22 08:17:19;;;;;;;;;;;;;;;;;;6251774;23;20667;-91
2021/11/22 08:19:45;;;;;;;;;;;;;;;;;;6252652;23;19924;-91
2021/11/22 08:22:12;;;;;;;;;;;;;;;;;;6251185;23;19924;-91
2021/11/22 08:24:38;;;;;;;;;;;;;;;;;;6251074;23;19923;-90
2021/11/22 08:27:04;;;;;;;;;;;;;;;;;;6251722;23;19946;-90
2021/11/22 08:29:30;;;;;;;;;;;;;;;;;;6248569;23;19924;-90
2021/11/22 08:31:57;;;;;;;;;;;;;;;;;;6249611;23;19931;-91
2021/11/22 08:34:23;;;;;;;;;;;;;;;;;;6243793;23;19923;-92
2021/11/22 08:36:49;;;;;;;;;;;;;;;;;;6251095;23;19923;-92
2021/11/22 08:39:16;;;;;;;;;;;;;;;;;;6252748;23;19930;-91
2021/11/22 08:41:42;;;;;;;;;;;;;;;;;;6254607;23;19923;-92
2021/11/22 08:44:08;;;;;;;;;;;;;;;;;;6253329;23;19947;-92
2021/11/22 08:46:36;;;;;;;;;;;;;;;;;;6254515;23;20318;-91
2021/11/22 08:49:02;;;;;;;;;;;;;;;;;;6255273;23;19931;-91
2021/11/22 08:51:28;;;;;;;;;;;;;;;;;;6253437;23;20672;-90
2021/11/22 08:53:55;;;;;;;;;;;;;;;;;;6252203;23;19923;-91
2021/11/22 08:56:21;;;;;;;;;;;;;;;;;;6252890;23;19931;-91
2021/11/22 08:58:47;;;;;;;;;;;;;;;;;;6253910;23;19939;-90
2021/11/22 09:01:14;;;;;;;;;;;;;;;;;;6255003;23;19946;-92
2021/11/22 09:03:40;;;;;;;;;;;;;;;;;;6255326;23;19923;-92
2021/11/22 09:06:06;;;;;;;;;;;;;;;;;;6254969;23;19931;-92
2021/11/22 09:08:32;;;;;;;;;;;;;;;;;;6253326;23;19923;-92
2021/11/22 09:10:59;;;;;;;;;;;;;;;;;;6253979;23;19923;-92
2021/11/22 09:13:25;;;;;;;;;;;;;;;;;;6254626;23;19935;-91
2021/11/22 09:15:51;;;;;;;;;;;;;;;;;;6254849;23;19923;-93
2021/11/22 09:18:18;;;;;;;;;;;;;;;;;;6252283;23;19938;-91
2021/11/22 09:20:45;;;;;;;;;;;;;;;;;;6252551;23;19923;-92
2021/11/22 09:23:12;;;;;;;;;;;;;;;;;;6254924;23;19923;-92
2021/11/22 09:25:38;;;;;;;;;;;;;;;;;;6254962;23;19946;-92
2021/11/22 09:28:04;;;;;;;;;;;;;;;;;;6253386;23;19924;-93
2021/11/22 09:30:31;;;;;;;;;;;;;;;;;;6253353;23;19931;-93
2021/11/22 09:32:57;;;;;;;;;;;;;;;;;;6249546;23;20365;-93
2021/11/22 09:35:26;;;;;;;;;;;;;;;;;;6249205;23;19919;-95
2021/11/22 09:37:52;;;;;;;;;;;;;;;;;;6255022;23;19923;-92
2021/11/22 09:40:18;;;;;;;;;;;;;;;;;;6255289;23;19930;-92
2021/11/22 09:42:45;;;;;;;;;;;;;;;;;;6261676;23;19926;-91
2021/11/22 09:45:12;;;;;;;;;;;;;;;;;;6264608;23;19923;-93
2021/11/22 09:47:38;;;;;;;;;;;;;;;;;;6269301;22;19914;-94
2021/11/22 09:50:06;;;;;;;;;;;;;;;;;;6264648;22;19943;-93
2021/11/22 09:52:33;;;;;;;;;;;;;;;;;;6253114;23;19925;-92
2021/11/22 09:54:59;;;;;;;;;;;;;;;;;;6252374;23;19938;-93
2021/11/22 09:57:25;;;;;;;;;;;;;;;;;;6253432;23;19928;-93
2021/11/22 09:59:52;;;;;;;;;;;;;;;;;;6253564;22;19923;-92
2021/11/22 10:02:18;;;;;;;;;;;;;;;;;;6252312;23;19947;-93
2021/11/22 10:04:45;;;;;;;;;;;;;;;;;;6251425;23;19976;-93
2021/11/22 10:07:15;;;;;;;;;;;;;;;;;;6253637;23;19924;-93
2021/11/22 10:09:42;;;;;;;;;;;;;;;;;;6253925;23;19923;-93
2021/11/22 10:12:08;;;;;;;;;;;;;;;;;;6254868;23;19923;-93
2021/11/22 10:14:34;;;;;;;;;;;;;;;;;;6254652;23;19923;-93
2021/11/22 10:17:01;;;;;;;;;;;;;;;;;;6254645;23;19930;-93
2021/11/22 10:19:27;;;;;;;;;;;;;;;;;;6254729;23;19919;-93
2021/11/22 10:21:53;;;;;;;;;;;;;;;;;;6252247;23;19920;-93
2021/11/22 10:24:20;;;;;;;;;;;;;;;;;;6253516;23;19924;-93
2021/11/22 10:26:46;;;;;;;;;;;;;;;;;;6253310;23;19927;-93
2021/11/22 10:29:12;;;;;;;;;;;;;;;;;;6252048;23;19999;-93
2021/11/22 10:31:39;;;;;;;;;;;;;;;;;;6254076;23;19919;-93
2021/11/22 10:34:06;;;;;;;;;;;;;;;;;;6254232;23;19919;-92
2021/11/22 10:36:37;;;;;;;;;;;;;;;;;;6253798;23;19943;-93
2021/11/22 10:39:03;;;;;;;;;;;;;;;;;;6253679;23;19923;-92
2021/11/22 10:41:29;;;;;;;;;;;;;;;;;;6253453;23;19931;-93
2021/11/22 10:43:55;;;;;;;;;;;;;;;;;;6253683;23;19931;-93
2021/11/22 10:46:22;;;;;;;;;;;;;;;;;;6254073;23;20183;-94
2021/11/22 10:48:50;;;;;;;;;;;;;;;;;;6254427;23;19931;-93
2021/11/22 10:51:20;;;;;;;;;;;;;;;;;;6253454;23;19950;-93
2021/11/22 10:53:46;;;;;;;;;;;;;;;;;;6254157;23;19924;-92
2021/11/22 10:56:12;;;;;;;;;;;;;;;;;;6253330;23;19934;-92
2021/11/22 10:58:38;;;;;;;;;;;;;;;;;;6252730;23;19924;-93
2021/11/22 11:01:05;;;;;;;;;;;;;;;;;;6253917;23;20403;-93
2021/11/22 11:03:31;;;;;;;;;;;;;;;;;;6227446;23;19929;-94
2021/11/22 11:05:58;;;;;;;;;;;;;;;;;;6254594;23;19962;-93
2021/11/22 11:08:24;;;;;;;;;;;;;;;;;;6254264;23;19930;-94
2021/11/22 11:10:53;;;;;;;;;;;;;;;;;;6254624;23;19923;-94
2021/11/22 11:13:20;;;;;;;;;;;;;;;;;;6255337;23;19923;-94
2021/11/22 11:15:46;;;;;;;;;;;;;;;;;;6256035;23;19923;-92
2021/11/22 11:18:12;;;;;;;;;;;;;;;;;;6251924;23;19924;-94
2021/11/22 11:20:39;;;;;;;;;;;;;;;;;;6252029;23;19934;-92
2021/11/22 11:23:05;;;;;;;;;;;;;;;;;;6255716;23;19924;-91
2021/11/22 11:25:32;;;;;;;;;;;;;;;;;;6253365;23;19923;-92
2021/11/22 11:27:58;;;;;;;;;;;;;;;;;;6254047;23;19947;-94
2021/11/22 11:30:25;;;;;;;;;;;;;;;;;;6254591;23;19955;-94
2021/11/22 11:32:52;;;;;;;;;;;;;;;;;;6253821;23;19923;-94
2021/11/22 11:35:18;;;;;;;;;;;;;;;;;;6254962;23;19924;-94
2021/11/22 11:37:45;;;;;;;;;;;;;;;;;;6254202;23;19920;-92
2021/11/22 11:40:11;;;;;;;;;;;;;;;;;;6253003;23;19924;-94
2021/11/22 11:42:37;;;;;;;;;;;;;;;;;;6252978;23;19927;-92
2021/11/22 11:45:04;;;;;;;;;;;;;;;;;;6253182;23;19995;-91
2021/11/22 11:47:30;;;;;;;;;;;;;;;;;;6254962;23;19963;-93
2021/11/22 11:49:56;;;;;;;;;;;;;;;;;;6253716;23;19923;-92
2021/11/22 11:52:22;;;;;;;;;;;;;;;;;;6253687;23;19923;-94
2021/11/22 11:54:49;;;;;;;;;;;;;;;;;;6253858;23;19931;-93
2021/11/22 11:57:15;;;;;;;;;;;;;;;;;;6254350;23;20675;-92
2021/11/22 11:59:41;;;;;;;;;;;;;;;;;;6253075;23;19931;-95
2021/11/22 12:02:08;;;;;;;;;;;;;;;;;;6254756;23;19924;-93
2021/11/22 12:04:34;;;;;;;;;;;;;;;;;;6254049;23;19990;-94
2021/11/22 12:07:01;;;;;;;;;;;;;;;;;;6252367;23;19920;-94
2021/11/22 12:09:27;;;;;;;;;;;;;;;;;;6249710;23;19929;-94
2021/11/22 12:11:54;;;;;;;;;;;;;;;;;;6253558;23;19920;-94
2021/11/22 12:14:20;;;;;;;;;;;;;;;;;;6254065;23;20266;-92
2021/11/22 12:16:46;;;;;;;;;;;;;;;;;;6256136;23;19927;-95
2021/11/22 12:19:13;;;;;;;;;;;;;;;;;;6265130;23;19919;-95
2021/11/22 12:21:39;;;;;;;;;;;;;;;;;;6267609;22;19924;-95
2021/11/22 12:24:06;;;;;;;;;;;;;;;;;;6264272;22;20241;-93
2021/11/22 12:26:34;;;;;;;;;;;;;;;;;;6254301;23;19927;-93
2021/11/22 12:29:00;;;;;;;;;;;;;;;;;;6254252;23;19967;-92
2021/11/22 12:31:27;;;;;;;;;;;;;;;;;;6253763;22;19920;-91
2021/11/22 12:33:53;;;;;;;;;;;;;;;;;;6253721;23;19945;-89
2021/11/22 12:36:21;;;;;;;;;;;;;;;;;;6252820;23;19923;-93
2021/11/22 12:38:47;;;;;;;;;;;;;;;;;;6251971;23;19951;-91
2021/11/22 12:41:14;;;;;;;;;;;;;;;;;;6253064;23;19923;-92
2021/11/22 12:46:38;;;;;;;76.30;18.80;;;;;;;;;;6257718;23;20454;-95
2021/11/22 12:49:22;;;;;;;79.07;19.87;;;;;;;;;;6255643;23;20406;-94
2021/11/22 12:51:56;;;;;;;80.77;21.00;;;;;;;;;;6260098;23;20406;-96
2021/11/22 12:54:23;;;;;;;78.10;20.60;;;;;;;;;;6261901;22;20409;-93
2021/11/22 12:56:50;;;;;;;81.10;20.73;;;;;;;;;;6255509;23;20472;-96
2021/11/22 13:02:37;;;;;;;86.87;20.17;;;;;;;;;;6264356;23;20390;-96
2021/11/22 13:05:06;;;;;;;83.50;19.83;;;;;;;;;;6258934;23;20448;-93
2021/11/22 13:07:51;;;;;;;80.47;20.83;;;;;;;;;;6257911;23;20469;-96
2021/11/22 13:10:35;;;;;;;82.73;20.93;;;;;;;;;;6225535;23;20421;-92
2021/11/22 13:13:10;;;;;;;79.43;19.43;;;;;;;;;;6256712;23;20497;-92
2021/11/22 13:15:53;;;;;;;77.20;20.20;;;;;;;;;;6255090;23;20499;-95
2021/11/22 13:18:27;;;;;;;86.83;20.97;;;;;;;;;;6254351;23;20410;-95
2021/11/22 13:20:56;;;;;;;81.30;21.13;;;;;;;;;;6256149;23;20406;-96
2021/11/22 13:26:09;;;;;;;80.00;20.30;;;;;;;;;;6253395;22;20449;-91
2021/11/22 13:28:48;;;;;;;79.97;19.70;;;;;;;;;;6260938;23;20402;-96
2021/11/22 13:31:15;;;;;;;80.40;20.77;;;;;;;;;;6256555;23;20413;-91
2021/11/22 13:33:41;;;;;;;82.20;20.60;;;;;;;;;;6253362;23;20429;-93
2021/11/22 13:36:16;;;;;;;80.13;19.97;;;;;;;;;;6252735;23;20424;-94
2021/11/22 13:38:43;;;;;;;82.20;21.23;;;;;;;;;;6255497;23;20906;-92
2021/11/22 13:41:10;;;;;;;82.13;20.40;;;;;;;;;;6257379;23;20437;-94
2021/11/22 13:43:37;;;;;;;82.50;21.40;;;;;;;;;;6257702;23;20402;-94
2021/11/22 13:46:04;;;;;;;83.83;22.57;;;;;;;;;;6260735;23;21073;-92
2021/11/22 13:49:01;;;;;;;83.20;21.80;;;;;;;;;;6256462;23;20425;-91
2021/11/22 13:51:30;;;;;;;81.20;20.50;;;;;;;;;;6109914;23;20489;-92
2021/11/22 13:53:57;;;;;;;82.97;21.53;;;;;;;;;;6225327;23;20416;-90
2021/11/22 13:56:25;;;;;;;81.80;21.37;;;;;;;;;;6254947;23;20421;-92
2021/11/22 13:58:52;;;;;;;82.13;21.63;;;;;;;;;;6252381;23;20409;-94
2021/11/22 14:01:19;;;;;;;83.00;22.20;;;;;;;;;;6253661;23;20405;-89
2021/11/22 14:03:46;;;;;;;80.03;21.10;;;;;;;;;;6257726;23;20410;-90
2021/11/22 14:06:13;;;;;;;78.97;20.17;;;;;;;;;;6255956;23;20454;-91
2021/11/22 14:08:41;;;;;;;80.13;20.27;;;;;;;;;;6255751;23;20406;-91
2021/11/22 14:11:23;;;;;;;83.67;21.10;;;;;;;;;;6256908;23;20437;-93
2021/11/22 14:13:57;;;;;;;81.97;20.90;;;;;;;;;;6216635;23;20446;-95
2021/11/22 14:16:26;;;;;;;83.03;21.83;;;;;;;;;;6206501;23;20418;-95
2021/11/22 14:22:14;;;;;;;82.13;21.30;;;;;;;;;;6221939;23;20402;-96
2021/11/22 14:25:18;;;;;;;80.77;20.43;;;;;;;;;;6238481;23;20481;-94
2021/11/22 14:28:12;;;;;;;80.70;20.60;;;;;;;;;;6235585;23;20458;-96
2021/11/22 14:30:45;;;;;;;82.17;20.73;;;;;;;;;;6237580;23;20480;-96
2021/11/22 14:36:31;;;;;;;81.00;20.80;;;;;;;;;;6215014;23;20457;-96
2021/11/22 14:39:00;;;;;;;83.20;20.67;;;;;;;;;;6226137;23;20417;-95
2021/11/22 14:41:38;;;;;;;81.47;21.10;;;;;;;;;;6231401;23;20459;-96
2021/11/22 14:53:15;;;;;;;82.77;21.80;;;;;;;;;;6209561;22;20504;-95
2021/11/22 14:55:42;;;;;;;84.20;22.00;;;;;;;;;;6262584;23;20414;-96
2021/11/22 14:58:08;;;;;;;82.40;21.67;;;;;;;;;;6255973;23;20465;-94
2021/11/22 15:00:37;;;;;;;84.47;21.47;;;;;;;;;;6258825;23;20394;-94
2021/11/22 15:03:23;;;;;;;82.97;20.43;;;;;;;;;;6256467;23;20420;-95
2021/11/22 15:05:56;;;;;;;85.63;22.93;;;;;;;;;;6267181;22;20742;-94
2021/11/22 15:08:26;;;;;;;84.83;21.37;;;;;;;;;;6264579;23;20443;-96
2021/11/22 15:10:53;;;;;;;83.57;21.90;;;;;;;;;;6257622;23;20421;-94
2021/11/22 15:13:32;;;;;;;81.67;21.10;;;;;;;;;;6254880;23;20419;-95
2021/11/22 15:15:59;;;;;;;86.57;22.40;;;;;;;;;;6255463;23;20479;-93
2021/11/22 15:18:25;;;;;;;85.67;22.13;;;;;;;;;;6256099;23;20437;-91
2021/11/22 15:20:52;;;;;;;84.20;21.40;;;;;;;;;;6261751;23;20808;-96
2021/11/22 15:23:19;;;;;;;84.37;22.20;;;;;;;;;;6260942;23;20425;-95
2021/11/22 15:25:49;;;;;;;85.93;22.17;;;;;;;;;;6257171;23;20421;-96
2021/11/22 15:28:17;;;;;;;82.20;21.63;;;;;;;;;;6253383;23;20476;-93
2021/11/22 15:30:51;;;;;;;81.30;21.30;;;;;;;;;;6258329;23;20398;-95
2021/11/22 15:33:20;;;;;;;79.33;20.20;;;;;;;;;;6254457;23;20437;-93
2021/11/22 15:35:47;;;;;;;82.60;21.30;;;;;;;;;;6254923;23;20434;-94
2021/11/22 15:38:15;;;;;;;84.27;20.50;;;;;;;;;;6254583;23;20420;-94
2021/11/22 15:40:42;;;;;;;85.27;22.90;;;;;;;;;;6254671;23;20416;-92
2021/11/22 15:43:12;;;;;;;90.20;21.63;;;;;;;;;;6257236;23;20410;-95
2021/11/22 15:45:39;;;;;;;85.60;21.50;;;;;;;;;;6254967;23;20478;-92
2021/11/22 15:48:06;;;;;;;83.17;20.37;;;;;;;;;;6260949;23;20453;-94
2021/11/22 15:50:32;;;;;;;85.20;21.70;;;;;;;;;;6255517;23;21230;-93
2021/11/22 15:53:25;;;;;;;82.47;21.50;;;;;;;;;;6260158;22;20448;-96
2021/11/22 15:55:53;;;;;;;81.37;20.37;;;;;;;;;;6262761;23;20483;-94
2021/11/22 15:58:22;;;;;;;84.20;22.20;;;;;;;;;;6256699;23;20406;-95
2021/11/22 16:00:48;;;;;;;83.77;22.27;;;;;;;;;;6259110;23;20404;-94
2021/11/22 16:03:15;;;;;;;83.10;20.87;;;;;;;;;;6257472;23;20410;-96
2021/11/22 16:05:45;;;;;;;85.57;21.73;;;;;;;;;;6260794;23;20440;-96
2021/11/22 16:08:12;;;;;;;84.93;21.60;;;;;;;;;;6265336;23;20476;-96
2021/11/22 16:10:43;;;;;;;82.03;21.50;;;;;;;;;;6263980;23;20402;-96
2021/11/22 16:15:51;;;;;;;83.60;21.33;;;;;;;;;;6255222;23;20416;-96
2021/11/22 16:18:20;;;;;;;87.23;22.40;;;;;;;;;;6262288;23;20670;-95
2021/11/22 16:20:47;;;;;;;88.40;25.07;;;;;;;;;;6256661;23;20398;-95
2021/11/22 16:26:24;;;;;;;86.87;23.17;;;;;;;;;;6263548;23;20404;-96
2021/11/22 16:28:51;;;;;;;86.27;22.50;;;;;;;;;;6257683;23;20406;-96
2021/11/22 16:31:19;;;;;;;81.30;21.73;;;;;;;;;;6258137;23;20413;-95
2021/11/22 16:33:45;;;;;;;83.07;21.93;;;;;;;;;;6256802;23;20474;-95
2021/11/22 16:36:43;;;;;;;86.10;22.40;;;;;;;;;;6265100;23;20445;-96